San Juan Enterprise — WDD9563 — position and weather

sailwx.info

Track history (hours):
 
Tides and Currents Weather Stations Pressure Air Temp Water Temp Dewpoint Dewpoint Depression Visibility Wind Speed Wind Dir Waves Ship Positions

San Juan Enterprise

Owner: SAN JUAN MARINE FREIGHT CO LLC, ANACORTES, WA. More information available from US FCC via Universal Licensing System and Coast Guard Vessel Documentation Center.

Last reported at 2014-Dec-20 02:32 UTC. Time now 2014-Dec-20 02:57 UTC.
Position N 48°31' W 122°36'.

Length 30 m.

MMSI: 367313160.

Date/timePositionNaut miles runAvg speedWind from/ knotsBaromVisibWave heightAir tempDewpointWater temp
2014-Dec-20 02:32N 48°31' W 122°36'0 0.0
2014-Dec-20 01:32N 48°31' W 122°36'0 0.0
2014-Dec-20 00:32N 48°31' W 122°36'0 0.0
2014-Dec-19 23:32N 48°31' W 122°36'0 0.0
2014-Dec-19 22:32N 48°31' W 122°36'0 0.0
2014-Dec-19 21:32N 48°31' W 122°36'0 0.0
2014-Dec-19 20:32N 48°31' W 122°36'0 0.0
2014-Dec-19 19:32N 48°31' W 122°36'0 0.1
2014-Dec-19 18:33N 48°31' W 122°36'4 3.8
2014-Dec-19 17:33N 48°33' W 122°41'4 3.7
2014-Dec-19 16:33N 48°31' W 122°36'0 0.1
2014-Dec-19 15:32N 48°31' W 122°36'0 0.0
2014-Dec-19 14:26N 48°31' W 122°36'0 0.0
2014-Dec-19 13:32N 48°31' W 122°36'0 0.0
2014-Dec-19 12:32N 48°31' W 122°36'0 0.0
2014-Dec-19 11:32N 48°31' W 122°36'0 0.0
2014-Dec-19 10:32N 48°31' W 122°36'0 0.0
2014-Dec-19 09:32N 48°31' W 122°36'0 0.0
2014-Dec-19 08:32N 48°31' W 122°36'0 0.0
2014-Dec-19 07:26N 48°31' W 122°36'0 0.0
2014-Dec-19 06:32N 48°31' W 122°36'0 0.0
2014-Dec-19 05:32N 48°31' W 122°36'0 0.0
2014-Dec-19 04:32N 48°31' W 122°36'0 0.0
2014-Dec-19 03:26N 48°31' W 122°36'0 0.0
2014-Dec-19 02:32N 48°31' W 122°36'0 0.0
2014-Dec-19 01:32N 48°31' W 122°36'0 0.0
2014-Dec-19 00:32N 48°31' W 122°36'0 0.0
2014-Dec-18 23:32N 48°31' W 122°36'0 0.0
2014-Dec-18 22:32N 48°31' W 122°36'0 0.0
2014-Dec-18 21:32N 48°31' W 122°36'0 0.0
2014-Dec-18 20:32N 48°31' W 122°36'0 0.0
2014-Dec-18 19:32N 48°31' W 122°36'0 0.0
2014-Dec-18 18:26N 48°31' W 122°36'0 0.0
2014-Dec-18 17:32N 48°31' W 122°36'0 0.0
2014-Dec-18 16:32N 48°31' W 122°36'0 0.0
2014-Dec-18 15:32N 48°31' W 122°36'0 0.0
2014-Dec-18 14:32N 48°31' W 122°36'0 0.0
2014-Dec-18 13:32N 48°31' W 122°36'0 0.0
2014-Dec-18 12:32N 48°31' W 122°36'0 0.0
2014-Dec-18 11:32N 48°31' W 122°36'0 0.0
2014-Dec-18 10:32N 48°31' W 122°36'0 0.0
2014-Dec-18 09:26N 48°31' W 122°36'0 0.0
2014-Dec-18 08:32N 48°31' W 122°36'0 0.0
2014-Dec-18 07:32N 48°31' W 122°36'0 0.0
2014-Dec-18 06:32N 48°31' W 122°36'0 0.0
2014-Dec-18 05:32N 48°31' W 122°36'0 0.0
2014-Dec-18 04:32N 48°31' W 122°36'0 0.0
2014-Dec-18 03:32N 48°31' W 122°36'0 0.0
2014-Dec-18 02:32N 48°31' W 122°36'0 0.0
2014-Dec-18 01:32N 48°31' W 122°36'0 0.0
2014-Dec-18 00:32N 48°31' W 122°36'0 0.0
2014-Dec-17 23:32N 48°31' W 122°36'0 0.0
2014-Dec-17 22:32N 48°31' W 122°36'1 0.7
2014-Dec-17 21:34N 48°31' W 122°37'8 8.3
2014-Dec-17 20:34N 48°33' W 122°50'7 6.8
2014-Dec-17 19:34N 48°32' W 122°60'0 0.1
2014-Dec-17 18:33N 48°32' W 123°00'3 2.9
2014-Dec-17 17:34N 48°33' W 122°56'7 7.5
2014-Dec-17 16:34N 48°32' W 122°45'6 5.2
2014-Dec-17 15:28N 48°31' W 122°36'0 0.0
2014-Dec-17 14:31N 48°31' W 122°36'0 0.0
2014-Dec-17 13:31N 48°31' W 122°36'0 0.0
2014-Dec-17 12:31N 48°31' W 122°36'0 0.0
2014-Dec-17 11:22N 48°31' W 122°36'0 0.0
2014-Dec-17 10:31N 48°31' W 122°36'0 0.0
2014-Dec-17 09:31N 48°31' W 122°36'0 0.0
2014-Dec-17 08:31N 48°31' W 122°36'0 0.0
2014-Dec-17 07:31N 48°31' W 122°36'0 0.0
2014-Dec-17 06:31N 48°31' W 122°36'0 0.0
2014-Dec-17 05:31N 48°31' W 122°36'0 0.0
2014-Dec-17 04:31N 48°31' W 122°36'0 0.0
2014-Dec-17 03:31N 48°31' W 122°36'0 0.0
2014-Dec-17 02:31N 48°31' W 122°36'0 0.0
2014-Dec-17 01:31N 48°31' W 122°36'0 0.0
2014-Dec-17 00:31N 48°31' W 122°36'0 0.0
2014-Dec-16 23:31N 48°31' W 122°36'0 0.0
2014-Dec-16 22:31N 48°31' W 122°36'4 3.7
2014-Dec-16 21:32N 48°33' W 122°41'0 0.0
2014-Dec-16 20:33N 48°33' W 122°41'0 0.0
2014-Dec-16 19:33N 48°33' W 122°41'3 3.4
2014-Dec-16 18:33N 48°31' W 122°37'0 0.0
2014-Dec-16 17:34N 48°31' W 122°37'0 0.3
2014-Dec-16 16:32N 48°31' W 122°36'0 0.0
2014-Dec-16 15:32N 48°31' W 122°36'0 0.0
2014-Dec-16 14:26N 48°31' W 122°36'0 0.0
2014-Dec-16 13:32N 48°31' W 122°36'0 0.0
2014-Dec-16 12:26N 48°31' W 122°36'0 0.0
2014-Dec-16 11:32N 48°31' W 122°36'0 0.0
2014-Dec-16 10:32N 48°31' W 122°36'0 0.0
2014-Dec-16 09:32N 48°31' W 122°36'0 0.0
2014-Dec-16 08:32N 48°31' W 122°36'0 0.0
2014-Dec-16 07:32N 48°31' W 122°36'0 0.0
2014-Dec-16 06:32N 48°31' W 122°36'0 0.0
2014-Dec-16 05:32N 48°31' W 122°36'0 0.0
2014-Dec-16 03:32N 48°31' W 122°36'0 0.0
2014-Dec-16 02:32N 48°31' W 122°36'0 0.0
2014-Dec-16 00:30N 48°31' W 122°36'0 0.0
2014-Dec-15 23:20N 48°31' W 122°36'0 0.0
2014-Dec-15 22:23N 48°31' W 122°36'0 0.0
2014-Dec-15 21:33N 48°31' W 122°36'6 6.2
2014-Dec-15 20:33N 48°32' W 122°46'7 7.2
2014-Dec-15 19:33N 48°33' W 122°56'3 2.6
2014-Dec-15 18:33N 48°32' W 123°00'0 0.3
2014-Dec-15 17:33N 48°32' W 122°60'7 6.8
2014-Dec-15 16:33N 48°32' W 122°50'8 8.2
2014-Dec-15 15:33N 48°31' W 122°37'0 0.2
2014-Dec-15 13:28N 48°31' W 122°37'0 0.0
2014-Dec-15 12:28N 48°31' W 122°37'0 0.0
2014-Dec-15 11:31N 48°31' W 122°37'0 0.0
2014-Dec-15 10:25N 48°31' W 122°37'0 0.0
2014-Dec-15 09:31N 48°31' W 122°37'0 0.0
2014-Dec-15 08:31N 48°31' W 122°37'0 0.0
2014-Dec-15 07:31N 48°31' W 122°37'0 0.0
2014-Dec-15 06:31N 48°31' W 122°37'0 0.0
2014-Dec-15 05:31N 48°31' W 122°37'0 0.0
2014-Dec-15 04:31N 48°31' W 122°37'0 0.0
2014-Dec-15 03:25N 48°31' W 122°37'0 0.0
2014-Dec-15 02:13N 48°31' W 122°37'0 0.0
2014-Dec-15 01:31N 48°31' W 122°37'0 0.0
2014-Dec-15 00:31N 48°31' W 122°37'0 0.0
2014-Dec-14 23:31N 48°31' W 122°37'0 0.0
2014-Dec-14 22:31N 48°31' W 122°37'0 0.0
2014-Dec-14 21:25N 48°31' W 122°37'0 0.0
2014-Dec-14 20:25N 48°31' W 122°37'0 0.0
2014-Dec-14 19:19N 48°31' W 122°37'0 0.0
2014-Dec-14 18:19N 48°31' W 122°37'0 0.0
2014-Dec-14 17:07N 48°31' W 122°37'0 0.0
2014-Dec-14 13:19N 48°31' W 122°37'0 0.0
2014-Dec-14 12:31N 48°31' W 122°37'0 0.0
2014-Dec-14 10:13N 48°31' W 122°37'0 0.0
2014-Dec-14 09:31N 48°31' W 122°37'0 0.0
2014-Dec-14 08:19N 48°31' W 122°37'0 0.0
2014-Dec-14 07:19N 48°31' W 122°37'0 0.0
2014-Dec-14 06:31N 48°31' W 122°37'0 0.0
2014-Dec-14 05:25N 48°31' W 122°37'0 0.0
2014-Dec-14 04:25N 48°31' W 122°37'0 0.0
2014-Dec-14 03:31N 48°31' W 122°37'0 0.0
2014-Dec-14 02:25N 48°31' W 122°37'0 0.0
2014-Dec-14 01:31N 48°31' W 122°37'0 0.0
2014-Dec-14 00:31N 48°31' W 122°37'0 0.0
2014-Dec-13 23:31N 48°31' W 122°37'0 0.0
2014-Dec-13 22:31N 48°31' W 122°37'0 0.0
2014-Dec-13 21:25N 48°31' W 122°37'0 0.0
2014-Dec-13 20:19N 48°31' W 122°37'0 0.0
2014-Dec-13 19:31N 48°31' W 122°37'0 0.0
2014-Dec-13 18:31N 48°31' W 122°37'0 0.0
2014-Dec-13 17:31N 48°31' W 122°37'0 0.0
2014-Dec-13 16:25N 48°31' W 122°37'0 0.0
2014-Dec-13 15:31N 48°31' W 122°37'0 0.0
2014-Dec-13 14:31N 48°31' W 122°37'0 0.0
2014-Dec-13 13:31N 48°31' W 122°37'0 0.0
2014-Dec-13 12:31N 48°31' W 122°37'0 0.0
2014-Dec-13 11:31N 48°31' W 122°37'0 0.0
2014-Dec-13 10:31N 48°31' W 122°37'0 0.0
2014-Dec-13 09:31N 48°31' W 122°37'0 0.0
2014-Dec-13 08:31N 48°31' W 122°37'0 0.0
2014-Dec-13 07:31N 48°31' W 122°37'0 0.0
2014-Dec-13 06:31N 48°31' W 122°37'0 0.0
2014-Dec-13 00:19N 48°31' W 122°37'0 0.0
2014-Dec-12 21:25N 48°31' W 122°37'0 0.0
2014-Dec-12 20:31N 48°31' W 122°37'0 0.0
2014-Dec-12 15:13N 48°31' W 122°37'0 0.0
2014-Dec-12 14:28N 48°31' W 122°37'0 0.0
2014-Dec-12 13:28N 48°31' W 122°37'0 0.0
2014-Dec-12 12:04N 48°31' W 122°37'0 0.0
2014-Dec-12 10:16N 48°31' W 122°37'0 0.0
2014-Dec-12 09:28N 48°31' W 122°37'0 0.0
2014-Dec-12 08:31N 48°31' W 122°37'0 0.0
2014-Dec-12 07:10N 48°31' W 122°37'0 0.0
2014-Dec-12 06:22N 48°31' W 122°37'0 0.0
2014-Dec-12 05:28N 48°31' W 122°37'0 0.0
2014-Dec-12 03:28N 48°31' W 122°37'0 0.0
2014-Dec-12 00:06N 48°31' W 122°37'2 0.6
2014-Dec-11 21:33N 48°31' W 122°39'8 7.8
2014-Dec-11 20:33N 48°36' W 122°48'1 1.0
2014-Dec-11 19:33N 48°35' W 122°49'0 0.4
2014-Dec-11 18:33N 48°35' W 122°49'0 0.3
2014-Dec-11 17:33N 48°35' W 122°49'3 3.2
2014-Dec-11 16:33N 48°34' W 122°45'6 6.2
2014-Dec-11 15:33N 48°31' W 122°36'0 0.0
2014-Dec-11 14:17N 48°31' W 122°36'0 0.0
2014-Dec-11 13:23N 48°31' W 122°36'0 0.0
2014-Dec-11 12:23N 48°31' W 122°36'0 0.0
2014-Dec-11 10:05N 48°31' W 122°36'0 0.0
2014-Dec-11 09:17N 48°31' W 122°36'0 0.0
2014-Dec-11 07:17N 48°31' W 122°36'0 0.0
2014-Dec-11 04:23N 48°31' W 122°36'0 0.0
2014-Dec-10 23:11N 48°31' W 122°36'0 0.0
2014-Dec-10 22:30N 48°31' W 122°36'0 0.2
2014-Dec-10 20:32N 48°31' W 122°37'3 2.7
2014-Dec-10 19:16N 48°33' W 122°41'2 2.0
2014-Dec-10 18:31N 48°32' W 122°40'2 2.0
2014-Dec-10 17:32N 48°31' W 122°37'0 0.3
2014-Dec-10 16:09N 48°31' W 122°36'  
Track history (hours):
 
Tides and Currents Weather Stations Pressure Air Temp Water Temp Dewpoint Dewpoint Depression Visibility Wind Speed Wind Dir Waves Ship Positions

San Juan Enterprise

Owner: SAN JUAN MARINE FREIGHT CO LLC, ANACORTES, WA. More information available from US FCC via Universal Licensing System and Coast Guard Vessel Documentation Center.

Last reported at 2014-Dec-20 02:32 UTC. Time now 2014-Dec-20 02:57 UTC.
Position N 48°31' W 122°36'.

Length 30 m.

MMSI: 367313160.

Date/timePositionNaut miles runAvg speedWind from/ knotsBaromVisibWave heightAir tempDewpointWater temp
2014-Dec-20 02:32N 48°31' W 122°36'0 0.0
2014-Dec-20 01:32N 48°31' W 122°36'0 0.0
2014-Dec-20 00:32N 48°31' W 122°36'0 0.0
2014-Dec-19 23:32N 48°31' W 122°36'0 0.0
2014-Dec-19 22:32N 48°31' W 122°36'0 0.0
2014-Dec-19 21:32N 48°31' W 122°36'0 0.0
2014-Dec-19 20:32N 48°31' W 122°36'0 0.0
2014-Dec-19 19:32N 48°31' W 122°36'0 0.1
2014-Dec-19 18:33N 48°31' W 122°36'4 3.8
2014-Dec-19 17:33N 48°33' W 122°41'4 3.7
2014-Dec-19 16:33N 48°31' W 122°36'0 0.1
2014-Dec-19 15:32N 48°31' W 122°36'0 0.0
2014-Dec-19 14:26N 48°31' W 122°36'0 0.0
2014-Dec-19 13:32N 48°31' W 122°36'0 0.0
2014-Dec-19 12:32N 48°31' W 122°36'0 0.0
2014-Dec-19 11:32N 48°31' W 122°36'0 0.0
2014-Dec-19 10:32N 48°31' W 122°36'0 0.0
2014-Dec-19 09:32N 48°31' W 122°36'0 0.0
2014-Dec-19 08:32N 48°31' W 122°36'0 0.0
2014-Dec-19 07:26N 48°31' W 122°36'0 0.0
2014-Dec-19 06:32N 48°31' W 122°36'0 0.0
2014-Dec-19 05:32N 48°31' W 122°36'0 0.0
2014-Dec-19 04:32N 48°31' W 122°36'0 0.0
2014-Dec-19 03:26N 48°31' W 122°36'0 0.0
2014-Dec-19 02:32N 48°31' W 122°36'0 0.0
2014-Dec-19 01:32N 48°31' W 122°36'0 0.0
2014-Dec-19 00:32N 48°31' W 122°36'0 0.0
2014-Dec-18 23:32N 48°31' W 122°36'0 0.0
2014-Dec-18 22:32N 48°31' W 122°36'0 0.0
2014-Dec-18 21:32N 48°31' W 122°36'0 0.0
2014-Dec-18 20:32N 48°31' W 122°36'0 0.0
2014-Dec-18 19:32N 48°31' W 122°36'0 0.0
2014-Dec-18 18:26N 48°31' W 122°36'0 0.0
2014-Dec-18 17:32N 48°31' W 122°36'0 0.0
2014-Dec-18 16:32N 48°31' W 122°36'0 0.0
2014-Dec-18 15:32N 48°31' W 122°36'0 0.0
2014-Dec-18 14:32N 48°31' W 122°36'0 0.0
2014-Dec-18 13:32N 48°31' W 122°36'0 0.0
2014-Dec-18 12:32N 48°31' W 122°36'0 0.0
2014-Dec-18 11:32N 48°31' W 122°36'0 0.0
2014-Dec-18 10:32N 48°31' W 122°36'0 0.0
2014-Dec-18 09:26N 48°31' W 122°36'0 0.0
2014-Dec-18 08:32N 48°31' W 122°36'0 0.0
2014-Dec-18 07:32N 48°31' W 122°36'0 0.0
2014-Dec-18 06:32N 48°31' W 122°36'0 0.0
2014-Dec-18 05:32N 48°31' W 122°36'0 0.0
2014-Dec-18 04:32N 48°31' W 122°36'0 0.0
2014-Dec-18 03:32N 48°31' W 122°36'0 0.0
2014-Dec-18 02:32N 48°31' W 122°36'0 0.0
2014-Dec-18 01:32N 48°31' W 122°36'0 0.0
2014-Dec-18 00:32N 48°31' W 122°36'0 0.0
2014-Dec-17 23:32N 48°31' W 122°36'0 0.0
2014-Dec-17 22:32N 48°31' W 122°36'1 0.7
2014-Dec-17 21:34N 48°31' W 122°37'8 8.3
2014-Dec-17 20:34N 48°33' W 122°50'7 6.8
2014-Dec-17 19:34N 48°32' W 122°60'0 0.1
2014-Dec-17 18:33N 48°32' W 123°00'3 2.9
2014-Dec-17 17:34N 48°33' W 122°56'7 7.5
2014-Dec-17 16:34N 48°32' W 122°45'6 5.2
2014-Dec-17 15:28N 48°31' W 122°36'0 0.0
2014-Dec-17 14:31N 48°31' W 122°36'0 0.0
2014-Dec-17 13:31N 48°31' W 122°36'0 0.0
2014-Dec-17 12:31N 48°31' W 122°36'0 0.0
2014-Dec-17 11:22N 48°31' W 122°36'0 0.0
2014-Dec-17 10:31N 48°31' W 122°36'0 0.0
2014-Dec-17 09:31N 48°31' W 122°36'0 0.0
2014-Dec-17 08:31N 48°31' W 122°36'0 0.0
2014-Dec-17 07:31N 48°31' W 122°36'0 0.0
2014-Dec-17 06:31N 48°31' W 122°36'0 0.0
2014-Dec-17 05:31N 48°31' W 122°36'0 0.0
2014-Dec-17 04:31N 48°31' W 122°36'0 0.0
2014-Dec-17 03:31N 48°31' W 122°36'0 0.0
2014-Dec-17 02:31N 48°31' W 122°36'0 0.0
2014-Dec-17 01:31N 48°31' W 122°36'0 0.0
2014-Dec-17 00:31N 48°31' W 122°36'0 0.0
2014-Dec-16 23:31N 48°31' W 122°36'0 0.0
2014-Dec-16 22:31N 48°31' W 122°36'4 3.7
2014-Dec-16 21:32N 48°33' W 122°41'0 0.0
2014-Dec-16 20:33N 48°33' W 122°41'0 0.0
2014-Dec-16 19:33N 48°33' W 122°41'3 3.4
2014-Dec-16 18:33N 48°31' W 122°37'0 0.0
2014-Dec-16 17:34N 48°31' W 122°37'0 0.3
2014-Dec-16 16:32N 48°31' W 122°36'0 0.0
2014-Dec-16 15:32N 48°31' W 122°36'0 0.0
2014-Dec-16 14:26N 48°31' W 122°36'0 0.0
2014-Dec-16 13:32N 48°31' W 122°36'0 0.0
2014-Dec-16 12:26N 48°31' W 122°36'0 0.0
2014-Dec-16 11:32N 48°31' W 122°36'0 0.0
2014-Dec-16 10:32N 48°31' W 122°36'0 0.0
2014-Dec-16 09:32N 48°31' W 122°36'0 0.0
2014-Dec-16 08:32N 48°31' W 122°36'0 0.0
2014-Dec-16 07:32N 48°31' W 122°36'0 0.0
2014-Dec-16 06:32N 48°31' W 122°36'0 0.0
2014-Dec-16 05:32N 48°31' W 122°36'0 0.0
2014-Dec-16 03:32N 48°31' W 122°36'0 0.0
2014-Dec-16 02:32N 48°31' W 122°36'0 0.0
2014-Dec-16 00:30N 48°31' W 122°36'0 0.0
2014-Dec-15 23:20N 48°31' W 122°36'0 0.0
2014-Dec-15 22:23N 48°31' W 122°36'0 0.0
2014-Dec-15 21:33N 48°31' W 122°36'6 6.2
2014-Dec-15 20:33N 48°32' W 122°46'7 7.2
2014-Dec-15 19:33N 48°33' W 122°56'3 2.6
2014-Dec-15 18:33N 48°32' W 123°00'0 0.3
2014-Dec-15 17:33N 48°32' W 122°60'7 6.8
2014-Dec-15 16:33N 48°32' W 122°50'8 8.2
2014-Dec-15 15:33N 48°31' W 122°37'0 0.2
2014-Dec-15 13:28N 48°31' W 122°37'0 0.0
2014-Dec-15 12:28N 48°31' W 122°37'0 0.0
2014-Dec-15 11:31N 48°31' W 122°37'0 0.0
2014-Dec-15 10:25N 48°31' W 122°37'0 0.0
2014-Dec-15 09:31N 48°31' W 122°37'0 0.0
2014-Dec-15 08:31N 48°31' W 122°37'0 0.0
2014-Dec-15 07:31N 48°31' W 122°37'0 0.0
2014-Dec-15 06:31N 48°31' W 122°37'0 0.0
2014-Dec-15 05:31N 48°31' W 122°37'0 0.0
2014-Dec-15 04:31N 48°31' W 122°37'0 0.0
2014-Dec-15 03:25N 48°31' W 122°37'0 0.0
2014-Dec-15 02:13N 48°31' W 122°37'0 0.0
2014-Dec-15 01:31N 48°31' W 122°37'0 0.0
2014-Dec-15 00:31N 48°31' W 122°37'0 0.0
2014-Dec-14 23:31N 48°31' W 122°37'0 0.0
2014-Dec-14 22:31N 48°31' W 122°37'0 0.0
2014-Dec-14 21:25N 48°31' W 122°37'0 0.0
2014-Dec-14 20:25N 48°31' W 122°37'0 0.0
2014-Dec-14 19:19N 48°31' W 122°37'0 0.0
2014-Dec-14 18:19N 48°31' W 122°37'0 0.0
2014-Dec-14 17:07N 48°31' W 122°37'0 0.0
2014-Dec-14 13:19N 48°31' W 122°37'0 0.0
2014-Dec-14 12:31N 48°31' W 122°37'0 0.0
2014-Dec-14 10:13N 48°31' W 122°37'0 0.0
2014-Dec-14 09:31N 48°31' W 122°37'0 0.0
2014-Dec-14 08:19N 48°31' W 122°37'0 0.0
2014-Dec-14 07:19N 48°31' W 122°37'0 0.0
2014-Dec-14 06:31N 48°31' W 122°37'0 0.0
2014-Dec-14 05:25N 48°31' W 122°37'0 0.0
2014-Dec-14 04:25N 48°31' W 122°37'0 0.0
2014-Dec-14 03:31N 48°31' W 122°37'0 0.0
2014-Dec-14 02:25N 48°31' W 122°37'0 0.0
2014-Dec-14 01:31N 48°31' W 122°37'0 0.0
2014-Dec-14 00:31N 48°31' W 122°37'0 0.0
2014-Dec-13 23:31N 48°31' W 122°37'0 0.0
2014-Dec-13 22:31N 48°31' W 122°37'0 0.0
2014-Dec-13 21:25N 48°31' W 122°37'0 0.0
2014-Dec-13 20:19N 48°31' W 122°37'0 0.0
2014-Dec-13 19:31N 48°31' W 122°37'0 0.0
2014-Dec-13 18:31N 48°31' W 122°37'0 0.0
2014-Dec-13 17:31N 48°31' W 122°37'0 0.0
2014-Dec-13 16:25N 48°31' W 122°37'0 0.0
2014-Dec-13 15:31N 48°31' W 122°37'0 0.0
2014-Dec-13 14:31N 48°31' W 122°37'0 0.0
2014-Dec-13 13:31N 48°31' W 122°37'0 0.0
2014-Dec-13 12:31N 48°31' W 122°37'0 0.0
2014-Dec-13 11:31N 48°31' W 122°37'0 0.0
2014-Dec-13 10:31N 48°31' W 122°37'0 0.0
2014-Dec-13 09:31N 48°31' W 122°37'0 0.0
2014-Dec-13 08:31N 48°31' W 122°37'0 0.0
2014-Dec-13 07:31N 48°31' W 122°37'0 0.0
2014-Dec-13 06:31N 48°31' W 122°37'0 0.0
2014-Dec-13 00:19N 48°31' W 122°37'0 0.0
2014-Dec-12 21:25N 48°31' W 122°37'0 0.0
2014-Dec-12 20:31N 48°31' W 122°37'0 0.0
2014-Dec-12 15:13N 48°31' W 122°37'0 0.0
2014-Dec-12 14:28N 48°31' W 122°37'0 0.0
2014-Dec-12 13:28N 48°31' W 122°37'0 0.0
2014-Dec-12 12:04N 48°31' W 122°37'0 0.0
2014-Dec-12 10:16N 48°31' W 122°37'0 0.0
2014-Dec-12 09:28N 48°31' W 122°37'0 0.0
2014-Dec-12 08:31N 48°31' W 122°37'0 0.0
2014-Dec-12 07:10N 48°31' W 122°37'0 0.0
2014-Dec-12 06:22N 48°31' W 122°37'0 0.0
2014-Dec-12 05:28N 48°31' W 122°37'0 0.0
2014-Dec-12 03:28N 48°31' W 122°37'0 0.0
2014-Dec-12 00:06N 48°31' W 122°37'2 0.6
2014-Dec-11 21:33N 48°31' W 122°39'8 7.8
2014-Dec-11 20:33N 48°36' W 122°48'1 1.0
2014-Dec-11 19:33N 48°35' W 122°49'0 0.4
2014-Dec-11 18:33N 48°35' W 122°49'0 0.3
2014-Dec-11 17:33N 48°35' W 122°49'3 3.2
2014-Dec-11 16:33N 48°34' W 122°45'6 6.2
2014-Dec-11 15:33N 48°31' W 122°36'0 0.0
2014-Dec-11 14:17N 48°31' W 122°36'0 0.0
2014-Dec-11 13:23N 48°31' W 122°36'0 0.0
2014-Dec-11 12:23N 48°31' W 122°36'0 0.0
2014-Dec-11 10:05N 48°31' W 122°36'0 0.0
2014-Dec-11 09:17N 48°31' W 122°36'0 0.0
2014-Dec-11 07:17N 48°31' W 122°36'0 0.0
2014-Dec-11 04:23N 48°31' W 122°36'0 0.0
2014-Dec-10 23:11N 48°31' W 122°36'0 0.0
2014-Dec-10 22:30N 48°31' W 122°36'0 0.2
2014-Dec-10 20:32N 48°31' W 122°37'3 2.7
2014-Dec-10 19:16N 48°33' W 122°41'2 2.0
2014-Dec-10 18:31N 48°32' W 122°40'2 2.0
2014-Dec-10 17:32N 48°31' W 122°37'0 0.3
2014-Dec-10 16:09N 48°31' W 122°36'  

Dump ship's entire track history